Van Vleet, Mississippi
Current Conditions -  °F | °C
As of 3:53 PM on Monday 24 Nov 2014 (Local Time) from KTUP Reporting Station
Clear Clear  
Wind Chill: 58°   Ceiling: Unl
Heat Index: 58°   Visibility: 10mi
Dew Point: 34°   Wind: 8mph
Humidity: 41%   Direction: 300°WNW
Pressure: 29.93"   Gusts: NA
Location:  33.99°N, 88.9°W
Report Text: KTUP 242153Z 30007KT 10SM CLR 14/01 A2993 RMK AO2 SLP132 T01440011
Loading
Personal Weather Stations






























Interactive Weather Map New forecast layout! Learn more

10-Day Weather Forecast

Advertisements
Track Severe Weather on mobile